• Join FlightAware (Why Join?)
  • Login
  • US Flag 
Rudolph Flight #1: Arrived! 
03:42PM EST


 

Airport Tracker/Info


-or-


 

Live Flight TrackerFlight Track Log ✈ AWI3778 ✈ 10-Aug-2013 ✈ KJAX - KDCA

Flight Track Log - Related Links

Times and Time Zones

All times are in EDT time to prevent confusion due to time zone crossing. See the AWI3778 flight status page for this flight to view local times or setup timezone preferences in your user account.

Time Position Orientation Groundspeed Altitude Reporting Facility
EDT Latitude Longitude Course Direction KTS MPH feet Rate Location/Type
03:47PM 30.5153 -81.6458 68° East 164 189 1,700  Level Jacksonville Center
03:48PM 30.5400 -81.6192 43° Northeast 213 245 2,600 1,560 Climbing Jacksonville Center
03:49PM 30.5958 -81.5628 41° Northeast 268 308 4,300 2,100 Climbing Jacksonville Center
03:50PM 30.7542 -81.3833 44° Northeast  Level FlightAware Approximate
03:50PM 30.6556 -81.5042 40° Northeast 282 325 6,900  Level Jacksonville Center
03:51PM 30.8277 -81.3167 33° Northeast  Level FlightAware Approximate
03:51PM 30.7175 -81.4403 42° Northeast 296 341 9,300  Level Jacksonville Center
03:52PM 30.9000 -81.2633 19° North  Level FlightAware Approximate
03:52PM 30.7836 -81.3717 42° Northeast 350 403 10,600  Level Jacksonville Center
03:53PM 30.8600 -81.3003 39° Northeast 350 403 12,000 1,440 Climbing Jacksonville Center
03:54PM 30.9556 -81.2550 22° Northeast 350 403 13,500 1,440 Climbing Jacksonville Center
03:55PM 31.0597 -81.2531 North 358 412 15,000 1,320 Climbing Jacksonville Center
03:56PM 31.1703 -81.2464 North 379 436 16,200 1,200 Climbing Jacksonville Center
03:57PM 31.2767 -81.2397 North 384 442 17,400 900 Climbing Jacksonville Center
03:58PM 31.3769 -81.2331 North 389 448 18,000 600 Climbing Jacksonville Center
03:59PM 31.4867 -81.1628 29° Northeast 400 460 18,700 600 Climbing Jacksonville Center
04:00PM 31.5817 -81.0903 33° Northeast 408 470 19,300 600 Climbing Jacksonville Center
04:01PM 31.6706 -81.0203 34° Northeast 414 476 20,000 600 Climbing Jacksonville Center
04:02PM 31.7756 -80.9375 34° Northeast 414 476 20,600 600 Climbing Jacksonville Center
04:03PM 31.8664 -80.8672 33° Northeast 414 476 21,200 600 Climbing Jacksonville Center
04:04PM 31.9736 -80.7839 33° Northeast 414 476 21,900 540 Climbing Jacksonville Center
04:05PM 32.0703 -80.7058 34° Northeast 414 476 22,400 480 Climbing Jacksonville Center
04:06PM 32.1569 -80.6375 34° Northeast 419 482 22,900 480 Climbing Jacksonville Center
04:07PM 32.2536 -80.5589 35° Northeast 419 482 23,400 480 Climbing Jacksonville Center
04:08PM 32.3522 -80.4778 35° Northeast 419 482 23,900 480 Climbing Jacksonville Center
04:09PM 32.4508 -80.3986 34° Northeast 419 482 24,400 480 Climbing Jacksonville Center
04:10PM 32.5517 -80.3197 33° Northeast 419 482 24,900 480 Climbing Jacksonville Center
04:11PM 32.6503 -80.2378 35° Northeast 419 482 25,400 480 Climbing Jacksonville Center
04:12PM 32.7486 -80.1558 35° Northeast 424 488 25,900 480 Climbing Jacksonville Center
04:13PM 32.8469 -80.0764 34° Northeast 424 488 26,400 600 Climbing Jacksonville Center
04:14PM 32.9686 -80.0081 25° Northeast 429 494 27,100 660 Climbing Jacksonville Center
04:15PM 33.0847 -79.9672 16° North 429 494 27,800 660 Climbing Jacksonville Center
04:16PM 33.1942 -79.9189 20° North 424 488 28,500 600 Climbing Jacksonville Center
04:17PM 33.2992 -79.8583 26° Northeast 419 482 29,000 480 Climbing Jacksonville Center
04:18PM 33.4039 -79.7950 27° Northeast 414 476 29,500 480 Climbing Jacksonville Center
04:19PM 33.5089 -79.7289 28° Northeast 420 483 30,000 480 Climbing Jacksonville Center
04:20PM 33.6156 -79.6653 26° Northeast 420 483 30,500 480 Climbing Jacksonville Center
04:21PM 33.7206 -79.6017 27° Northeast 420 483 31,000 240 Climbing Jacksonville Center
04:22PM 33.8253 -79.5378 27° Northeast 420 483 31,000  Level Jacksonville Center
04:23PM 33.9319 -79.4711 27° Northeast 420 483 31,000  Level Jacksonville Center
04:24PM 34.0386 -79.4092 26° Northeast 420 483 31,000  Level Jacksonville Center
04:25PM 34.1453 -79.3422 27° Northeast 420 483 31,000  Level Jacksonville Center
04:27PM 34.3294 -79.2283 27° Northeast 451 519 31,000  Level Washington Center
04:28PM 34.4397 -79.1653 25° Northeast 446 513 31,000  Level Washington Center
04:29PM 34.5522 -79.0994 26° Northeast 446 513 31,000  Level Washington Center
04:30PM 34.6606 -79.0361 26° Northeast 441 507 31,000  Level Washington Center
04:31PM 34.7708 -78.9725 25° Northeast 435 501 31,000  Level Washington Center
04:32PM 34.8853 -78.9064 25° Northeast 435 501 31,000  Level Washington Center
04:33PM 34.9978 -78.8400 26° Northeast 435 501 31,000  Level Washington Center
04:34PM 35.1100 -78.7758 25° Northeast 430 495 31,000  Level Washington Center
04:35PM 35.2225 -78.7092 26° Northeast 430 495 31,000  Level Washington Center
04:36PM 35.3325 -78.6447 26° Northeast 430 495 31,000  Level Washington Center
04:37PM 35.4597 -78.5681 26° Northeast 438 504 31,000  Level Washington Center
04:38PM 35.5614 -78.5078 26° Northeast 443 510 31,000  Level Washington Center
04:39PM 35.6906 -78.4333 25° Northeast 453 521 31,000  Level Washington Center
04:40PM 35.8047 -78.3658 26° Northeast 453 521 31,000  Level Washington Center
04:41PM 35.9189 -78.2978 26° Northeast 453 521 31,000  Level Washington Center
04:42PM 36.0311 -78.2272 27° Northeast 453 521 31,000  Level Washington Center
04:43PM 36.1453 -78.1589 26° Northeast 453 521 31,000 -420 Level Washington Center
04:44PM 36.2572 -78.0931 25° Northeast 453 521 30,200 -960 Descending Washington Center
04:45PM 36.3714 -78.0219 27° Northeast 453 521 29,200 -960 Descending Washington Center
04:46PM 36.4853 -77.9531 26° Northeast 453 521 28,300 -960 Descending Washington Center
04:47PM 36.5972 -77.8867 25° Northeast 453 521 27,300 -660 Descending Washington Center
04:48PM 36.7153 -77.8281 22° Northeast 453 521 27,000 -180 Descending Washington Center
04:49PM 36.8308 -77.7794 19° North 441 507 27,000  Level Washington Center
04:50PM 36.9464 -77.7308 19° North 435 501 27,000  Level Washington Center
04:51PM 37.0600 -77.6844 18° North 430 495 27,000  Level Washington Center
04:52PM 37.1733 -77.6353 19° North 430 495 27,000 -180 Level Washington Center
04:53PM 37.2889 -77.5889 18° North 425 489 26,700 -1,200 Descending Washington Center
04:54PM 37.4067 -77.5397 18° North 430 495 24,600 -2,040 Descending Washington Center
04:55PM 37.5242 -77.4878 19° North 430 495 22,600 -2,040 Descending Washington Center
04:56PM 37.6397 -77.4381 19° North 430 495 20,600 -1,920 Descending Washington Center
04:57PM 37.7467 -77.3933 18° North 425 489 18,800 -1,740 Descending Washington Center
04:58PM 37.8517 -77.3486 19° North 407 468 17,100 -1,740 Descending Washington Center
04:59PM 37.9525 -77.3036 19° North 396 456 15,400 -1,680 Descending Washington Center
05:00PM 38.0531 -77.2636 17° North 385 443 13,800 -1,500 Descending Washington Center
05:01PM 38.1517 -77.2183 20° North 380 437 12,100 -1,620 Descending Washington Center
05:02PM 38.2567 -77.1703 20° North 368 423 10,300 -1,080 Descending Washington Center
05:03PM 38.3614 -77.1461 10° North 354 407 10,000 -180 Descending Washington Center
05:04PM 38.4575 -77.1242 10° North 349 402 10,000  Level Washington Center
05:05PM 38.5536 -77.1022 10° North 349 402 10,000  Level Washington Center
05:06PM 38.6497 -77.0803 10° North 349 402 10,000 -360 Level Washington Center
05:07PM 38.7356 -77.0661 North 334 384 9,300 -1,380 Descending Washington Center
05:08PM 38.8039 -77.0967 341° North 293 337 7,400 -2,160 Descending Washington Center
05:09PM 38.8667 -77.1667 319° Northwest 236 272 4,700 -1,920 Descending Potomac TRACON
05:10PM 38.9000 -77.2167 311° West 211 243 3,400 -1,020 Descending Potomac TRACON
05:11PM 38.9500 -77.1833 27° Northeast 200 230 2,700 -780 Descending Potomac TRACON
05:12PM 38.9167 -77.1167 123° Southeast 192 221 1,900 -900 Descending Potomac TRACON
05:13PM 38.9000 -77.0667 113° Southeast 157 181 900 -1,020 Descending Potomac TRACON